createdAt,value
2023-02-11T00:01:14.691Z,6.38
2023-02-11T00:03:42.522Z,6.39
2023-02-11T00:06:11.953Z,6.39
2023-02-11T00:08:40.358Z,6.39
2023-02-11T00:11:08.658Z,6.38
2023-02-11T00:13:36.447Z,6.33
2023-02-11T00:16:09.852Z,6.34
2023-02-11T00:18:37.838Z,6.33
2023-02-11T00:21:09.832Z,6.34
2023-02-11T00:23:38.392Z,6.33
2023-02-11T00:26:12.698Z,6.32
2023-02-11T00:28:41.574Z,6.33
2023-02-11T00:31:14.052Z,6.32
2023-02-11T00:33:42.073Z,6.34
2023-02-11T00:36:14.515Z,6.34
2023-02-11T00:38:43.976Z,6.35
2023-02-11T00:41:13.055Z,6.36
2023-02-11T00:43:40.924Z,6.33
2023-02-11T00:46:09.484Z,6.34
2023-02-11T00:48:38.772Z,6.32
2023-02-11T00:51:06.875Z,6.35
2023-02-11T00:53:34.797Z,6.37
2023-02-11T00:56:03.055Z,6.38
2023-02-11T00:58:30.971Z,6.37
2023-02-11T01:00:58.947Z,6.37
2023-02-11T01:03:26.816Z,6.39
2023-02-11T01:05:56.382Z,6.39
2023-02-11T01:08:24.270Z,6.38
2023-02-11T01:10:57.012Z,6.34
2023-02-11T01:13:25.683Z,6.31
2023-02-11T01:15:55.125Z,6.29
2023-02-11T01:18:22.978Z,6.28
2023-02-11T01:20:52.581Z,6.23
2023-02-11T01:23:21.914Z,6.24
2023-02-11T01:25:50.559Z,6.21
2023-02-11T01:28:19.952Z,6.13
2023-02-11T01:30:47.964Z,6.12
2023-02-11T01:33:16.230Z,6.10
2023-02-11T01:35:44.582Z,6.09
2023-02-11T01:38:17.557Z,6.10
2023-02-11T01:40:52.437Z,6.12
2023-02-11T01:43:21.034Z,6.12
2023-02-11T01:45:59.892Z,6.09
2023-02-11T01:48:31.178Z,6.11
2023-02-11T01:51:05.224Z,6.12
2023-02-11T01:53:51.186Z,6.10
2023-02-11T01:56:39.297Z,6.09
2023-02-11T01:59:12.462Z,6.08
2023-02-11T02:01:45.913Z,6.11
2023-02-11T02:04:17.617Z,6.12
2023-02-11T02:06:51.756Z,6.11
2023-02-11T02:09:24.177Z,6.09
2023-02-11T02:11:53.403Z,6.09
2023-02-11T02:14:21.429Z,6.09
2023-02-11T02:16:49.508Z,6.05
2023-02-11T02:19:55.031Z,6.03
2023-02-11T02:22:54.197Z,6.05
2023-02-11T02:25:55.766Z,6.05
2023-02-11T02:28:53.150Z,6.03
2023-02-11T02:31:42.640Z,5.98
2023-02-11T02:34:16.703Z,5.93
2023-02-11T02:36:52.934Z,5.85
2023-02-11T02:39:25.043Z,5.82
2023-02-11T02:41:54.708Z,5.79
2023-02-11T02:44:22.735Z,5.74
2023-02-11T02:46:50.583Z,5.66
2023-02-11T02:49:19.740Z,5.68
2023-02-11T02:52:11.871Z,5.69
2023-02-11T02:54:59.989Z,5.68
2023-02-11T02:57:34.409Z,5.70
2023-02-11T03:00:15.745Z,5.74
2023-02-11T03:02:57.207Z,5.77
2023-02-11T03:05:34.670Z,5.77
2023-02-11T03:08:09.406Z,5.76
2023-02-11T03:10:41.299Z,5.76
2023-02-11T03:13:10.152Z,5.74
2023-02-11T03:15:41.876Z,5.73
2023-02-11T03:18:12.597Z,5.73
2023-02-11T03:20:44.448Z,5.74
2023-02-11T03:23:15.850Z,5.73
2023-02-11T03:25:51.430Z,5.70
2023-02-11T03:28:26.662Z,5.67
2023-02-11T03:31:01.051Z,5.64
2023-02-11T03:33:37.858Z,5.65
2023-02-11T03:36:12.018Z,5.66
2023-02-11T03:38:45.947Z,5.67
2023-02-11T03:41:17.174Z,5.64
2023-02-11T03:43:47.148Z,5.62
2023-02-11T03:46:17.767Z,5.63
2023-02-11T03:48:50.492Z,5.57
2023-02-11T03:51:22.021Z,5.54
2023-02-11T03:53:54.010Z,5.52
2023-02-11T03:56:24.620Z,5.52
2023-02-11T03:58:52.478Z,5.52
2023-02-11T04:01:20.312Z,5.53
2023-02-11T04:03:48.163Z,5.57
2023-02-11T04:06:16.021Z,5.59
2023-02-11T04:08:45.184Z,5.59
2023-02-11T04:11:12.976Z,5.60
2023-02-11T04:13:40.789Z,5.63
2023-02-11T04:16:08.882Z,5.65
2023-02-11T04:18:36.672Z,5.61
2023-02-11T04:21:04.672Z,5.62
2023-02-11T04:23:32.440Z,5.63
2023-02-11T04:26:01.618Z,5.67
2023-02-11T04:28:29.673Z,5.67
2023-02-11T04:30:57.557Z,5.67
2023-02-11T04:33:25.520Z,5.69
2023-02-11T04:35:53.334Z,5.69
2023-02-11T04:38:21.079Z,5.70
2023-02-11T04:40:48.869Z,5.69
2023-02-11T04:43:18.022Z,5.72
2023-02-11T04:45:45.855Z,5.75
2023-02-11T04:48:13.715Z,5.75
2023-02-11T04:50:42.677Z,5.76
2023-02-11T04:53:10.477Z,5.77
2023-02-11T04:55:38.232Z,5.79
2023-02-11T04:58:05.978Z,5.81
2023-02-11T05:00:35.127Z,5.80
2023-02-11T05:03:02.872Z,5.83
2023-02-11T05:05:30.651Z,5.84
2023-02-11T05:07:58.421Z,5.85
2023-02-11T05:10:26.233Z,5.86
2023-02-11T05:12:55.884Z,5.86
2023-02-11T05:15:23.894Z,5.86
2023-02-11T05:17:53.009Z,5.87
2023-02-11T05:20:21.100Z,5.90
2023-02-11T05:22:49.203Z,5.95
2023-02-11T05:25:17.030Z,5.97
2023-02-11T05:27:44.927Z,5.96
2023-02-11T05:30:13.343Z,5.99
2023-02-11T05:32:41.172Z,5.99
2023-02-11T05:35:10.531Z,6.01
2023-02-11T05:37:38.341Z,6.02
2023-02-11T05:40:07.188Z,6.03
2023-02-11T05:42:35.131Z,6.06
2023-02-11T05:45:02.945Z,6.08
2023-02-11T05:47:31.114Z,6.08
2023-02-11T05:49:58.885Z,6.09
2023-02-11T05:52:28.023Z,6.10
2023-02-11T05:54:55.825Z,6.08
2023-02-11T05:57:24.206Z,6.09
2023-02-11T05:59:52.003Z,6.11
2023-02-11T06:02:19.838Z,6.12
2023-02-11T06:04:47.857Z,6.15
2023-02-11T06:07:15.743Z,6.16
2023-02-11T06:09:45.085Z,6.17
2023-02-11T06:12:12.926Z,6.16
2023-02-11T06:14:40.713Z,6.18
2023-02-11T06:17:08.489Z,6.21
2023-02-11T06:19:36.362Z,6.23
2023-02-11T06:22:04.183Z,6.25
2023-02-11T06:24:58.623Z,6.27
2023-02-11T06:27:21.119Z,6.31
2023-02-11T06:29:49.629Z,6.32
2023-02-11T06:32:39.567Z,6.35
2023-02-11T06:35:05.507Z,6.37
2023-02-11T06:37:34.749Z,6.35
2023-02-11T06:40:02.531Z,6.39
2023-02-11T06:42:31.702Z,6.40
2023-02-11T06:44:59.507Z,6.40
2023-02-11T06:47:27.269Z,6.42
2023-02-11T06:49:55.057Z,6.43
2023-02-11T06:52:22.875Z,6.43
2023-02-11T06:54:50.646Z,6.44
2023-02-11T06:57:18.404Z,6.45
2023-02-11T06:59:47.523Z,6.48
2023-02-11T07:02:15.457Z,6.48
2023-02-11T07:04:44.035Z,6.49
2023-02-11T07:07:11.768Z,6.51
2023-02-11T07:09:39.580Z,6.51
2023-02-11T07:12:07.852Z,6.52
2023-02-11T07:14:35.686Z,6.57
2023-02-11T07:17:05.138Z,6.60
2023-02-11T07:19:33.035Z,6.62
2023-02-11T07:22:00.898Z,6.65
2023-02-11T07:24:28.672Z,6.66
2023-02-11T07:26:56.490Z,6.68
2023-02-11T07:29:24.282Z,6.70
2023-02-11T07:31:52.157Z,6.72
2023-02-11T07:34:21.397Z,6.75
2023-02-11T07:36:49.943Z,6.79
2023-02-11T07:39:17.782Z,6.81
2023-02-11T07:41:47.735Z,6.83
2023-02-11T07:44:15.819Z,6.87
2023-02-11T07:46:45.206Z,6.89
2023-02-11T07:49:13.574Z,6.93
2023-02-11T07:51:43.161Z,6.96
2023-02-11T07:54:12.422Z,7.01
2023-02-11T07:56:40.248Z,7.01
2023-02-11T07:59:08.106Z,7.02
2023-02-11T08:01:35.900Z,7.06
2023-02-11T08:04:05.093Z,7.10
2023-02-11T08:06:35.025Z,7.09
2023-02-11T08:09:07.859Z,7.08
2023-02-11T08:11:36.152Z,7.12
2023-02-11T08:14:04.198Z,7.14
2023-02-11T08:16:34.352Z,7.14
2023-02-11T08:19:04.162Z,7.19
2023-02-11T08:21:32.423Z,7.19
2023-02-11T08:24:02.098Z,7.22
2023-02-11T08:26:34.682Z,7.26
2023-02-11T08:29:06.407Z,7.25
2023-02-11T08:31:36.526Z,7.27
2023-02-11T08:34:04.908Z,7.25
2023-02-11T08:36:34.222Z,7.28
2023-02-11T08:39:18.210Z,7.33
2023-02-11T08:41:49.458Z,7.35
2023-02-11T08:44:17.795Z,7.37
2023-02-11T08:46:45.576Z,7.42
2023-02-11T08:49:13.400Z,7.46
2023-02-11T08:51:41.205Z,7.52
2023-02-11T08:54:10.258Z,7.56
2023-02-11T08:56:38.627Z,7.59
2023-02-11T08:59:09.153Z,7.66
2023-02-11T09:01:37.139Z,7.70
2023-02-11T09:04:05.252Z,7.76
2023-02-11T09:06:33.105Z,7.85
2023-02-11T09:09:00.916Z,7.90
2023-02-11T09:11:31.581Z,8.02
2023-02-11T09:14:01.333Z,8.16
2023-02-11T09:16:34.449Z,8.18
2023-02-11T09:19:04.525Z,8.22
2023-02-11T09:21:32.677Z,8.22
2023-02-11T09:24:00.507Z,8.24
2023-02-11T09:26:30.333Z,8.31
2023-02-11T09:28:58.937Z,8.40
2023-02-11T09:31:28.383Z,8.45
2023-02-11T09:33:59.726Z,8.47
2023-02-11T09:36:29.717Z,8.51
2023-02-11T09:38:59.458Z,8.57
2023-02-11T09:41:40.554Z,8.66
2023-02-11T09:44:11.229Z,8.73
2023-02-11T09:46:43.166Z,8.77
2023-02-11T09:49:20.844Z,8.77
2023-02-11T09:51:53.464Z,8.91
2023-02-11T09:54:39.816Z,8.99
2023-02-11T09:57:22.917Z,9.07
2023-02-11T09:59:54.646Z,9.25
2023-02-11T10:02:28.483Z,9.40
2023-02-11T10:05:19.288Z,9.51
2023-02-11T10:07:52.514Z,9.61
2023-02-11T10:10:38.075Z,9.76
2023-02-11T10:13:22.598Z,9.86
2023-02-11T10:15:59.460Z,9.99
2023-02-11T10:18:41.494Z,10.06
2023-02-11T10:21:21.944Z,10.27
2023-02-11T10:23:53.777Z,10.43
2023-02-11T10:26:22.305Z,10.68
2023-02-11T10:28:54.534Z,10.81
2023-02-11T10:31:26.132Z,11.08
2023-02-11T10:34:00.851Z,11.31
2023-02-11T10:36:33.914Z,11.51
2023-02-11T10:39:03.363Z,11.46
2023-02-11T10:41:35.015Z,11.51
2023-02-11T10:44:02.881Z,11.68
2023-02-11T10:46:34.454Z,11.67
2023-02-11T10:49:03.400Z,11.66
2023-02-11T10:51:34.440Z,11.57
2023-02-11T10:54:19.508Z,11.46
2023-02-11T10:56:50.815Z,11.52
2023-02-11T10:59:25.747Z,11.59
2023-02-11T11:01:55.437Z,11.56
2023-02-11T11:04:36.460Z,11.53
2023-02-11T11:07:19.758Z,11.53
2023-02-11T11:09:56.701Z,11.53
2023-02-11T11:12:28.792Z,11.67
2023-02-11T11:14:58.083Z,11.90
2023-02-11T11:17:29.111Z,12.20
2023-02-11T11:20:11.597Z,12.38
2023-02-11T11:22:41.636Z,12.39
2023-02-11T11:25:23.025Z,12.37
2023-02-11T11:27:52.200Z,12.43
2023-02-11T11:30:20.951Z,12.49
2023-02-11T11:32:48.797Z,12.57
2023-02-11T11:35:26.605Z,12.57
2023-02-11T11:38:01.773Z,12.62
2023-02-11T11:40:32.241Z,12.83
2023-02-11T11:43:06.865Z,12.87
2023-02-11T11:45:34.679Z,12.95
2023-02-11T11:48:07.798Z,13.00
2023-02-11T11:50:38.281Z,12.95
2023-02-11T11:53:14.935Z,12.85
2023-02-11T11:55:46.976Z,12.90
2023-02-11T11:58:18.778Z,12.82
2023-02-11T12:00:55.326Z,12.78
2023-02-11T12:03:49.541Z,12.68
2023-02-11T12:06:27.383Z,12.67
2023-02-11T12:09:05.971Z,12.72
2023-02-11T12:11:44.353Z,12.76
2023-02-11T12:14:21.524Z,12.79
2023-02-11T12:16:58.304Z,12.72
2023-02-11T12:19:59.610Z,12.57
2023-02-11T12:22:41.817Z,12.54
2023-02-11T12:25:28.147Z,12.59
2023-02-11T12:28:07.281Z,12.66
2023-02-11T12:31:02.250Z,12.62
2023-02-11T12:33:49.538Z,12.64
2023-02-11T12:36:27.419Z,12.60
2023-02-11T12:39:07.061Z,12.51
2023-02-11T12:42:06.728Z,12.56
2023-02-11T12:44:43.551Z,12.79
2023-02-11T12:47:21.479Z,13.12
2023-02-11T12:50:01.836Z,13.39
2023-02-11T12:52:44.132Z,13.60
2023-02-11T12:55:22.984Z,13.75
2023-02-11T12:57:57.168Z,13.72
2023-02-11T13:00:29.047Z,13.61
2023-02-11T13:03:05.173Z,13.64
2023-02-11T13:05:40.548Z,13.73
2023-02-11T13:08:15.602Z,13.87
2023-02-11T13:10:47.949Z,13.89
2023-02-11T13:13:22.428Z,13.99
2023-02-11T13:15:54.778Z,14.23
2023-02-11T13:18:33.605Z,14.40
2023-02-11T13:21:17.716Z,14.52
2023-02-11T13:23:51.804Z,14.63
2023-02-11T13:26:26.884Z,14.76
2023-02-11T13:29:07.862Z,14.83
2023-02-11T13:31:35.811Z,14.78
2023-02-11T13:34:03.882Z,14.74
2023-02-11T13:36:34.231Z,14.65
2023-02-11T13:39:05.703Z,14.60
2023-02-11T13:41:37.135Z,14.47
2023-02-11T13:44:22.331Z,14.33
2023-02-11T13:46:57.192Z,14.29
2023-02-11T13:49:30.723Z,14.30
2023-02-11T13:52:00.186Z,14.36
2023-02-11T13:54:33.324Z,14.37
2023-02-11T13:57:26.326Z,14.31
2023-02-11T13:59:57.133Z,14.25
2023-02-11T14:02:46.433Z,14.26
2023-02-11T14:05:40.912Z,14.30
2023-02-11T14:08:33.659Z,14.29
2023-02-11T14:11:03.689Z,14.23
2023-02-11T14:13:32.773Z,14.11
2023-02-11T14:16:11.097Z,13.97
2023-02-11T14:19:01.842Z,13.83
2023-02-11T14:21:36.754Z,13.75
2023-02-11T14:24:47.352Z,13.70
2023-02-11T14:27:22.821Z,13.64
2023-02-11T14:30:10.401Z,13.64
2023-02-11T14:32:51.690Z,13.64
2023-02-11T14:35:28.012Z,13.64
2023-02-11T14:38:03.068Z,13.70
2023-02-11T14:40:34.983Z,13.74
2023-02-11T14:43:13.134Z,13.70
2023-02-11T14:45:41.539Z,13.71
2023-02-11T14:48:17.043Z,13.72
2023-02-11T14:50:49.900Z,13.69
2023-02-11T14:53:21.160Z,13.65
2023-02-11T14:55:50.440Z,13.59
2023-02-11T14:58:20.972Z,13.52
2023-02-11T15:00:55.043Z,13.41
2023-02-11T15:03:33.976Z,13.29
2023-02-11T15:06:04.706Z,13.19
2023-02-11T15:08:33.412Z,13.09
2023-02-11T15:11:03.256Z,13.05
2023-02-11T15:13:33.925Z,13.02
2023-02-11T15:16:06.546Z,12.96
2023-02-11T15:18:40.178Z,12.88
2023-02-11T15:21:09.142Z,12.80
2023-02-11T15:23:38.989Z,12.72
2023-02-11T15:26:14.341Z,12.69
2023-02-11T15:28:52.509Z,12.68
2023-02-11T15:31:23.276Z,12.61
2023-02-11T15:33:53.292Z,12.55
2023-02-11T15:36:23.788Z,12.43
2023-02-11T15:39:30.421Z,12.33
2023-02-11T15:41:58.378Z,12.22
2023-02-11T15:44:30.817Z,12.11
2023-02-11T15:46:59.019Z,11.94
2023-02-11T15:49:28.448Z,11.79
2023-02-11T15:51:58.043Z,11.74
2023-02-11T15:54:29.360Z,11.68
2023-02-11T15:57:02.706Z,11.64
2023-02-11T15:59:35.328Z,11.59
2023-02-11T16:02:09.221Z,11.56
2023-02-11T16:04:38.907Z,11.50
2023-02-11T16:07:06.780Z,11.40
2023-02-11T16:09:36.292Z,11.32
2023-02-11T16:12:07.665Z,11.24
2023-02-11T16:14:39.260Z,11.22
2023-02-11T16:17:10.485Z,11.14
2023-02-11T16:19:44.998Z,11.07
2023-02-11T16:22:18.068Z,11.01
2023-02-11T16:24:48.623Z,10.97
2023-02-11T16:27:23.713Z,10.90
2023-02-11T16:29:52.643Z,10.82
2023-02-11T16:32:23.326Z,10.78
2023-02-11T16:34:55.067Z,10.75
2023-02-11T16:37:22.837Z,10.73
2023-02-11T16:39:51.026Z,10.68
2023-02-11T16:42:18.819Z,10.64
2023-02-11T16:44:46.644Z,10.60
2023-02-11T16:47:21.504Z,10.58
2023-02-11T16:49:49.456Z,10.56
2023-02-11T16:52:20.289Z,10.55
2023-02-11T16:54:48.095Z,10.54
2023-02-11T16:57:17.766Z,10.51
2023-02-11T16:59:46.055Z,10.46
2023-02-11T17:02:17.347Z,10.44
2023-02-11T17:04:45.684Z,10.43
2023-02-11T17:07:13.577Z,10.41
2023-02-11T17:09:42.750Z,10.40
2023-02-11T17:12:11.369Z,10.39
2023-02-11T17:14:47.297Z,10.35
2023-02-11T17:17:15.219Z,10.33
2023-02-11T17:19:43.326Z,10.31
2023-02-11T17:22:12.753Z,10.27
2023-02-11T17:24:47.191Z,10.20
2023-02-11T17:27:17.461Z,10.14
2023-02-11T17:29:45.255Z,10.07
2023-02-11T17:32:13.170Z,10.01
2023-02-11T17:34:40.982Z,9.96
2023-02-11T17:37:09.303Z,9.91
2023-02-11T17:39:37.313Z,9.89
2023-02-11T17:42:07.245Z,9.84
2023-02-11T17:44:35.732Z,9.80
2023-02-11T17:47:03.515Z,9.74
2023-02-11T17:49:31.332Z,9.70
2023-02-11T17:51:59.138Z,9.67
2023-02-11T17:54:26.936Z,9.62
2023-02-11T17:56:58.115Z,9.61
2023-02-11T17:59:31.601Z,9.59
2023-02-11T18:01:59.732Z,9.57
2023-02-11T18:04:27.589Z,9.51
2023-02-11T18:06:55.495Z,9.44
2023-02-11T18:09:23.261Z,9.43
2023-02-11T18:11:52.568Z,9.42
2023-02-11T18:14:21.014Z,9.40
2023-02-11T18:16:52.230Z,9.37
2023-02-11T18:19:21.012Z,9.34
2023-02-11T18:21:48.915Z,9.31
2023-02-11T18:24:17.096Z,9.29
2023-02-11T18:26:44.939Z,9.29
2023-02-11T18:29:12.693Z,9.30
2023-02-11T18:31:40.553Z,9.29
2023-02-11T18:34:10.667Z,9.27
2023-02-11T18:36:38.853Z,9.26
2023-02-11T18:39:07.186Z,9.24
2023-02-11T18:41:35.004Z,9.23
2023-02-11T18:44:04.532Z,9.22
2023-02-11T18:46:32.407Z,9.20
2023-02-11T18:49:00.307Z,9.16
2023-02-11T18:51:31.924Z,9.16
2023-02-11T18:53:59.901Z,9.17
2023-02-11T18:56:28.710Z,9.14
2023-02-11T18:58:57.256Z,9.12
2023-02-11T19:01:27.408Z,9.10
2023-02-11T19:03:57.218Z,9.06
2023-02-11T19:06:26.762Z,9.05
2023-02-11T19:08:59.909Z,9.01
2023-02-11T19:11:42.447Z,9.01
2023-02-11T19:14:11.196Z,9.00
2023-02-11T19:16:39.704Z,8.97
2023-02-11T19:19:08.859Z,8.97
2023-02-11T19:21:37.717Z,8.98
2023-02-11T19:24:09.366Z,8.99
2023-02-11T19:26:38.082Z,9.00
2023-02-11T19:29:07.067Z,8.98
2023-02-11T19:31:35.394Z,8.99
2023-02-11T19:34:04.719Z,9.00
2023-02-11T19:36:32.637Z,9.00
2023-02-11T19:39:00.970Z,9.00
2023-02-11T19:41:31.027Z,8.99
2023-02-11T19:43:59.002Z,8.98
2023-02-11T19:46:28.696Z,9.00
2023-02-11T19:48:56.725Z,8.99
2023-02-11T19:51:24.539Z,8.96
2023-02-11T19:53:52.384Z,8.96
2023-02-11T19:56:20.984Z,8.98
2023-02-11T19:58:50.352Z,8.98
2023-02-11T20:01:20.442Z,8.98
2023-02-11T20:03:50.417Z,8.96
2023-02-11T20:06:21.566Z,8.99
2023-02-11T20:08:49.212Z,8.98
2023-02-11T20:11:18.358Z,8.99
2023-02-11T20:13:46.675Z,8.97
2023-02-11T20:16:18.678Z,8.96
2023-02-11T20:18:47.808Z,8.96
2023-02-11T20:21:17.749Z,8.96
2023-02-11T20:23:46.584Z,8.95
2023-02-11T20:26:16.295Z,8.94
2023-02-11T20:28:44.483Z,8.95
2023-02-11T20:31:13.190Z,8.94
2023-02-11T20:33:43.659Z,8.94
2023-02-11T20:36:15.868Z,8.93
2023-02-11T20:38:43.861Z,8.93
2023-02-11T20:41:14.351Z,8.90
2023-02-11T20:43:45.795Z,8.88
2023-02-11T20:46:14.889Z,8.88
2023-02-11T20:48:44.414Z,8.88
2023-02-11T20:51:14.510Z,8.86
2023-02-11T20:53:44.347Z,8.87
2023-02-11T20:56:13.313Z,8.86
2023-02-11T20:58:41.712Z,8.83
2023-02-11T21:01:09.879Z,8.82
2023-02-11T21:03:37.824Z,8.82
2023-02-11T21:06:10.129Z,8.83
2023-02-11T21:08:39.760Z,8.84
2023-02-11T21:11:08.838Z,8.83
2023-02-11T21:13:36.926Z,8.83
2023-02-11T21:16:05.716Z,8.81
2023-02-11T21:18:34.212Z,8.81
2023-02-11T21:21:02.385Z,8.81
2023-02-11T21:23:31.584Z,8.75
2023-02-11T21:25:59.343Z,8.73
2023-02-11T21:28:27.353Z,8.73
2023-02-11T21:30:56.598Z,8.72
2023-02-11T21:33:25.279Z,8.72
2023-02-11T21:35:56.186Z,8.71
2023-02-11T21:38:24.299Z,8.73
2023-02-11T21:40:53.980Z,8.72
2023-02-11T21:43:25.611Z,8.73
2023-02-11T21:45:54.696Z,8.71
2023-02-11T21:48:23.751Z,8.73
2023-02-11T21:50:51.563Z,8.71
2023-02-11T21:53:19.453Z,8.72
2023-02-11T21:55:47.289Z,8.75
2023-02-11T21:58:16.438Z,8.78
2023-02-11T22:00:44.235Z,8.78
2023-02-11T22:03:12.955Z,8.79
2023-02-11T22:05:41.563Z,8.78
2023-02-11T22:08:09.366Z,8.74
2023-02-11T22:10:37.176Z,8.62
2023-02-11T22:13:04.985Z,8.56
2023-02-11T22:15:34.179Z,8.62
2023-02-11T22:18:02.001Z,8.64
2023-02-11T22:20:29.847Z,8.61
2023-02-11T22:22:57.661Z,8.60
2023-02-11T22:25:25.453Z,8.59
2023-02-11T22:27:53.232Z,8.65
2023-02-11T22:30:21.313Z,8.66
2023-02-11T22:32:50.918Z,8.69
2023-02-11T22:35:18.732Z,8.72
2023-02-11T22:37:46.516Z,8.72
2023-02-11T22:40:14.812Z,8.75
2023-02-11T22:42:42.608Z,8.77
2023-02-11T22:45:10.726Z,8.75
2023-02-11T22:47:38.942Z,8.67
2023-02-11T22:50:08.923Z,8.66
2023-02-11T22:52:37.120Z,8.66
2023-02-11T22:55:05.508Z,8.65
2023-02-11T22:57:33.330Z,8.68
2023-02-11T23:00:01.132Z,8.66
2023-02-11T23:02:29.033Z,8.56
2023-02-11T23:04:56.831Z,8.47
2023-02-11T23:07:26.049Z,8.50
2023-02-11T23:09:53.837Z,8.48
2023-02-11T23:12:21.661Z,8.50
2023-02-11T23:14:49.457Z,8.53
2023-02-11T23:17:17.296Z,8.56
2023-02-11T23:19:45.049Z,8.55
2023-02-11T23:22:12.841Z,8.57
2023-02-11T23:24:42.006Z,8.59
2023-02-11T23:27:09.773Z,8.56
2023-02-11T23:29:37.654Z,8.55
2023-02-11T23:32:05.818Z,8.54
2023-02-11T23:34:33.632Z,8.54
2023-02-11T23:37:01.543Z,8.54
2023-02-11T23:39:29.491Z,8.53
2023-02-11T23:41:59.527Z,8.54
2023-02-11T23:44:27.551Z,8.57
2023-02-11T23:46:55.357Z,8.55
2023-02-11T23:49:23.159Z,8.55
2023-02-11T23:51:50.970Z,8.54
2023-02-11T23:54:18.760Z,8.50
2023-02-11T23:56:46.930Z,8.43
2023-02-11T23:59:17.015Z,8.41
